sensor_id;sensor_type;location;lat;lon;timestamp;P1;durP1;ratioP1;P2;durP2;ratioP2
19213;SDS011;9741;51.020;5.304;2023-11-21T00:02:01;5.87;;;3.60;;
19213;SDS011;9741;51.020;5.304;2023-11-21T00:04:29;23.20;;;2.60;;
19213;SDS011;9741;51.020;5.304;2023-11-21T00:06:59;6.57;;;3.23;;
19213;SDS011;9741;51.020;5.304;2023-11-21T00:09:28;2.87;;;1.77;;
19213;SDS011;9741;51.020;5.304;2023-11-21T00:12:00;2.70;;;1.33;;
19213;SDS011;9741;51.020;5.304;2023-11-21T07:40:14;14.33;;;3.77;;
19213;SDS011;9741;51.020;5.304;2023-11-21T07:42:43;7.27;;;4.20;;
19213;SDS011;9741;51.020;5.304;2023-11-21T07:45:13;7.00;;;3.97;;
19213;SDS011;9741;51.020;5.304;2023-11-21T07:47:54;6.43;;;4.87;;
19213;SDS011;9741;51.020;5.304;2023-11-21T07:50:21;12.97;;;5.70;;
19213;SDS011;9741;51.020;5.304;2023-11-21T07:52:48;6.40;;;4.00;;
19213;SDS011;9741;51.020;5.304;2023-11-21T07:55:17;15.80;;;5.33;;
19213;SDS011;9741;51.020;5.304;2023-11-21T07:57:44;8.93;;;4.93;;
19213;SDS011;9741;51.020;5.304;2023-11-21T08:00:12;9.90;;;4.23;;
19213;SDS011;9741;51.020;5.304;2023-11-21T08:02:40;10.83;;;3.60;;
19213;SDS011;9741;51.020;5.304;2023-11-21T08:05:11;9.43;;;4.17;;
19213;SDS011;9741;51.020;5.304;2023-11-21T08:07:38;8.23;;;3.80;;
19213;SDS011;9741;51.020;5.304;2023-11-21T08:10:06;13.93;;;4.77;;
19213;SDS011;9741;51.020;5.304;2023-11-21T08:12:36;5.00;;;3.63;;
19213;SDS011;9741;51.020;5.304;2023-11-21T08:15:05;17.97;;;5.40;;
19213;SDS011;9741;51.020;5.304;2023-11-21T08:17:32;16.77;;;6.07;;
19213;SDS011;9741;51.020;5.304;2023-11-21T08:20:00;9.87;;;3.63;;
19213;SDS011;9741;51.020;5.304;2023-11-21T08:22:28;8.83;;;4.43;;
19213;SDS011;9741;51.020;5.304;2023-11-21T08:24:56;10.20;;;5.40;;
19213;SDS011;9741;51.020;5.304;2023-11-21T08:27:23;17.90;;;5.33;;
19213;SDS011;9741;51.020;5.304;2023-11-21T08:29:53;8.00;;;5.03;;
19213;SDS011;9741;51.020;5.304;2023-11-21T08:32:20;12.00;;;4.40;;
19213;SDS011;9741;51.020;5.304;2023-11-21T08:34:46;9.87;;;3.87;;
19213;SDS011;9741;51.020;5.304;2023-11-21T08:37:15;7.17;;;5.03;;
19213;SDS011;9741;51.020;5.304;2023-11-21T08:39:43;19.17;;;5.30;;
19213;SDS011;9741;51.020;5.304;2023-11-21T08:42:11;14.10;;;6.33;;
19213;SDS011;9741;51.020;5.304;2023-11-21T08:44:38;10.37;;;3.60;;
19213;SDS011;9741;51.020;5.304;2023-11-21T08:47:09;10.87;;;5.53;;
19213;SDS011;9741;51.020;5.304;2023-11-21T08:49:36;10.10;;;4.43;;
19213;SDS011;9741;51.020;5.304;2023-11-21T08:52:03;6.87;;;4.13;;
19213;SDS011;9741;51.020;5.304;2023-11-21T08:54:31;10.47;;;4.37;;
19213;SDS011;9741;51.020;5.304;2023-11-21T08:56:59;9.83;;;5.20;;
19213;SDS011;9741;51.020;5.304;2023-11-21T08:59:26;7.53;;;3.37;;
19213;SDS011;9741;51.020;5.304;2023-11-21T09:01:53;11.83;;;4.53;;
19213;SDS011;9741;51.020;5.304;2023-11-21T09:04:21;9.23;;;3.67;;
19213;SDS011;9741;51.020;5.304;2023-11-21T09:06:48;7.60;;;3.57;;
19213;SDS011;9741;51.020;5.304;2023-11-21T09:09:15;5.33;;;3.83;;
19213;SDS011;9741;51.020;5.304;2023-11-21T09:11:42;6.33;;;4.03;;
19213;SDS011;9741;51.020;5.304;2023-11-21T09:14:10;7.53;;;3.63;;
19213;SDS011;9741;51.020;5.304;2023-11-21T09:16:41;8.50;;;4.63;;
19213;SDS011;9741;51.020;5.304;2023-11-21T09:19:08;7.00;;;4.27;;
19213;SDS011;9741;51.020;5.304;2023-11-21T09:21:36;6.77;;;3.73;;
19213;SDS011;9741;51.020;5.304;2023-11-21T09:24:04;9.07;;;4.20;;
19213;SDS011;9741;51.020;5.304;2023-11-21T09:26:34;10.37;;;3.93;;
19213;SDS011;9741;51.020;5.304;2023-11-21T09:29:01;9.67;;;4.60;;
19213;SDS011;9741;51.020;5.304;2023-11-21T09:31:28;8.70;;;4.07;;
19213;SDS011;9741;51.020;5.304;2023-11-21T09:33:56;5.07;;;3.57;;
19213;SDS011;9741;51.020;5.304;2023-11-21T09:36:24;8.37;;;4.77;;
19213;SDS011;9741;51.020;5.304;2023-11-21T09:38:54;5.60;;;3.37;;
19213;SDS011;9741;51.020;5.304;2023-11-21T09:41:23;5.10;;;3.37;;
19213;SDS011;9741;51.020;5.304;2023-11-21T09:44:00;5.87;;;3.53;;
19213;SDS011;9741;51.020;5.304;2023-11-21T09:46:36;3.13;;;2.83;;
19213;SDS011;9741;51.020;5.304;2023-11-21T09:49:06;5.10;;;3.27;;
19213;SDS011;9741;51.020;5.304;2023-11-21T09:51:37;3.73;;;2.47;;
19213;SDS011;9741;51.020;5.304;2023-11-21T09:54:10;4.83;;;2.93;;
19213;SDS011;9741;51.020;5.304;2023-11-21T09:56:37;4.53;;;3.60;;
19213;SDS011;9741;51.020;5.304;2023-11-21T09:59:05;3.30;;;2.57;;
19213;SDS011;9741;51.020;5.304;2023-11-21T10:01:35;6.73;;;3.57;;
19213;SDS011;9741;51.020;5.304;2023-11-21T10:04:04;5.27;;;3.20;;
19213;SDS011;9741;51.020;5.304;2023-11-21T10:06:36;10.03;;;3.97;;
19213;SDS011;9741;51.020;5.304;2023-11-21T10:09:05;9.57;;;4.03;;
19213;SDS011;9741;51.020;5.304;2023-11-21T10:11:38;9.40;;;4.67;;
19213;SDS011;9741;51.020;5.304;2023-11-21T10:14:08;9.03;;;4.23;;
19213;SDS011;9741;51.020;5.304;2023-11-21T10:16:38;10.50;;;4.20;;
19213;SDS011;9741;51.020;5.304;2023-11-21T10:19:05;4.27;;;2.93;;
19213;SDS011;9741;51.020;5.304;2023-11-21T10:21:33;8.30;;;4.20;;
19213;SDS011;9741;51.020;5.304;2023-11-21T10:24:01;8.73;;;3.60;;
19213;SDS011;9741;51.020;5.304;2023-11-21T10:26:39;6.93;;;3.73;;
19213;SDS011;9741;51.020;5.304;2023-11-21T10:29:07;7.10;;;3.40;;
19213;SDS011;9741;51.020;5.304;2023-11-21T10:31:34;7.67;;;4.33;;
19213;SDS011;9741;51.020;5.304;2023-11-21T10:34:13;5.30;;;3.10;;
19213;SDS011;9741;51.020;5.304;2023-11-21T10:36:41;4.40;;;2.93;;
19213;SDS011;9741;51.020;5.304;2023-11-21T10:39:08;6.50;;;4.90;;
19213;SDS011;9741;51.020;5.304;2023-11-21T10:41:39;4.87;;;2.87;;
19213;SDS011;9741;51.020;5.304;2023-11-21T10:44:06;7.60;;;4.20;;
19213;SDS011;9741;51.020;5.304;2023-11-21T10:46:36;4.90;;;3.03;;
19213;SDS011;9741;51.020;5.304;2023-11-21T10:49:05;3.00;;;2.67;;
19213;SDS011;9741;51.020;5.304;2023-11-21T10:51:32;8.00;;;3.67;;
19213;SDS011;9741;51.020;5.304;2023-11-21T10:53:59;5.47;;;3.27;;
19213;SDS011;9741;51.020;5.304;2023-11-21T10:56:26;2.17;;;2.07;;
19213;SDS011;9741;51.020;5.304;2023-11-21T10:58:56;4.33;;;3.60;;
19213;SDS011;9741;51.020;5.304;2023-11-21T11:01:23;6.73;;;3.60;;
19213;SDS011;9741;51.020;5.304;2023-11-21T11:03:54;8.10;;;4.20;;
19213;SDS011;9741;51.020;5.304;2023-11-21T11:06:22;11.20;;;4.57;;
19213;SDS011;9741;51.020;5.304;2023-11-21T11:08:52;7.57;;;4.00;;
19213;SDS011;9741;51.020;5.304;2023-11-21T11:11:20;9.03;;;4.00;;
19213;SDS011;9741;51.020;5.304;2023-11-21T11:13:47;5.43;;;2.70;;
19213;SDS011;9741;51.020;5.304;2023-11-21T11:16:16;9.13;;;4.80;;
19213;SDS011;9741;51.020;5.304;2023-11-21T11:18:43;10.97;;;5.00;;
19213;SDS011;9741;51.020;5.304;2023-11-21T11:21:15;6.03;;;3.73;;
19213;SDS011;9741;51.020;5.304;2023-11-21T11:23:54;5.80;;;3.33;;
19213;SDS011;9741;51.020;5.304;2023-11-21T11:26:39;7.80;;;4.93;;
19213;SDS011;9741;51.020;5.304;2023-11-21T11:29:14;9.33;;;3.37;;
19213;SDS011;9741;51.020;5.304;2023-11-21T11:31:52;10.30;;;4.93;;
19213;SDS011;9741;51.020;5.304;2023-11-21T11:34:30;20.63;;;5.83;;
19213;SDS011;9741;51.020;5.304;2023-11-21T11:37:00;8.80;;;4.00;;
19213;SDS011;9741;51.020;5.304;2023-11-21T11:39:35;5.47;;;3.23;;
19213;SDS011;9741;51.020;5.304;2023-11-21T11:42:03;9.83;;;4.93;;
19213;SDS011;9741;51.020;5.304;2023-11-21T11:44:48;7.00;;;3.40;;
19213;SDS011;9741;51.020;5.304;2023-11-21T11:47:22;5.53;;;4.67;;
19213;SDS011;9741;51.020;5.304;2023-11-21T11:50:05;7.03;;;3.70;;
19213;SDS011;9741;51.020;5.304;2023-11-21T11:52:38;4.17;;;3.30;;
19213;SDS011;9741;51.020;5.304;2023-11-21T11:55:08;7.77;;;4.10;;
19213;SDS011;9741;51.020;5.304;2023-11-21T11:57:37;7.97;;;4.53;;
19213;SDS011;9741;51.020;5.304;2023-11-21T12:00:11;13.10;;;3.77;;
19213;SDS011;9741;51.020;5.304;2023-11-21T12:02:46;6.47;;;3.70;;
19213;SDS011;9741;51.020;5.304;2023-11-21T12:05:14;7.57;;;5.10;;
19213;SDS011;9741;51.020;5.304;2023-11-21T12:07:43;4.60;;;3.50;;
19213;SDS011;9741;51.020;5.304;2023-11-21T12:10:16;5.47;;;4.10;;
19213;SDS011;9741;51.020;5.304;2023-11-21T12:12:47;5.20;;;3.33;;
19213;SDS011;9741;51.020;5.304;2023-11-21T12:15:15;8.00;;;3.93;;
19213;SDS011;9741;51.020;5.304;2023-11-21T12:17:43;4.17;;;3.73;;
19213;SDS011;9741;51.020;5.304;2023-11-21T12:20:12;9.10;;;4.10;;
19213;SDS011;9741;51.020;5.304;2023-11-21T12:22:44;6.53;;;3.40;;
19213;SDS011;9741;51.020;5.304;2023-11-21T12:25:14;9.90;;;4.67;;
19213;SDS011;9741;51.020;5.304;2023-11-21T12:27:43;7.20;;;3.93;;
19213;SDS011;9741;51.020;5.304;2023-11-21T12:30:12;7.07;;;3.97;;
19213;SDS011;9741;51.020;5.304;2023-11-21T12:32:41;3.47;;;2.80;;
19213;SDS011;9741;51.020;5.304;2023-11-21T12:35:10;5.57;;;3.53;;
19213;SDS011;9741;51.020;5.304;2023-11-21T12:37:38;8.30;;;4.13;;
19213;SDS011;9741;51.020;5.304;2023-11-21T12:40:06;7.53;;;4.50;;
19213;SDS011;9741;51.020;5.304;2023-11-21T12:42:37;12.33;;;3.73;;
19213;SDS011;9741;51.020;5.304;2023-11-21T12:47:54;12.23;;;4.83;;
19213;SDS011;9741;51.020;5.304;2023-11-21T12:50:27;11.77;;;2.73;;
19213;SDS011;9741;51.020;5.304;2023-11-21T12:52:58;6.87;;;3.97;;
19213;SDS011;9741;51.020;5.304;2023-11-21T12:55:29;8.97;;;4.23;;
19213;SDS011;9741;51.020;5.304;2023-11-21T12:57:56;6.03;;;3.20;;
19213;SDS011;9741;51.020;5.304;2023-11-21T13:00:27;7.53;;;4.47;;
19213;SDS011;9741;51.020;5.304;2023-11-21T13:02:58;9.33;;;3.57;;
19213;SDS011;9741;51.020;5.304;2023-11-21T13:05:30;7.80;;;5.53;;
19213;SDS011;9741;51.020;5.304;2023-11-21T13:08:00;7.40;;;5.23;;
19213;SDS011;9741;51.020;5.304;2023-11-21T13:10:28;5.90;;;4.33;;
19213;SDS011;9741;51.020;5.304;2023-11-21T13:12:57;6.23;;;3.87;;
19213;SDS011;9741;51.020;5.304;2023-11-21T13:15:25;7.73;;;4.33;;
19213;SDS011;9741;51.020;5.304;2023-11-21T13:17:53;12.70;;;4.87;;
19213;SDS011;9741;51.020;5.304;2023-11-21T13:20:21;12.03;;;5.17;;
19213;SDS011;9741;51.020;5.304;2023-11-21T13:22:51;3.53;;;3.03;;
19213;SDS011;9741;51.020;5.304;2023-11-21T13:25:22;6.57;;;4.13;;
19213;SDS011;9741;51.020;5.304;2023-11-21T13:27:52;9.83;;;4.93;;
19213;SDS011;9741;51.020;5.304;2023-11-21T13:30:19;10.00;;;3.90;;
19213;SDS011;9741;51.020;5.304;2023-11-21T13:32:52;8.53;;;3.47;;
19213;SDS011;9741;51.020;5.304;2023-11-21T13:35:22;11.70;;;4.73;;
19213;SDS011;9741;51.020;5.304;2023-11-21T13:38:02;9.77;;;4.20;;
19213;SDS011;9741;51.020;5.304;2023-11-21T13:40:31;5.93;;;4.17;;
19213;SDS011;9741;51.020;5.304;2023-11-21T13:42:59;9.17;;;4.03;;
19213;SDS011;9741;51.020;5.304;2023-11-21T13:45:29;6.43;;;4.47;;
19213;SDS011;9741;51.020;5.304;2023-11-21T13:47:56;8.50;;;2.83;;
19213;SDS011;9741;51.020;5.304;2023-11-21T13:50:26;4.40;;;2.57;;
19213;SDS011;9741;51.020;5.304;2023-11-21T13:52:59;3.90;;;3.07;;
19213;SDS011;9741;51.020;5.304;2023-11-21T13:55:32;4.23;;;2.47;;
19213;SDS011;9741;51.020;5.304;2023-11-21T13:58:01;3.73;;;2.60;;
19213;SDS011;9741;51.020;5.304;2023-11-21T14:00:34;6.60;;;3.07;;
19213;SDS011;9741;51.020;5.304;2023-11-21T14:03:10;4.23;;;2.40;;
19213;SDS011;9741;51.020;5.304;2023-11-21T14:05:44;3.10;;;2.10;;
19213;SDS011;9741;51.020;5.304;2023-11-21T14:08:17;3.47;;;2.30;;
19213;SDS011;9741;51.020;5.304;2023-11-21T14:10:45;5.17;;;3.47;;
19213;SDS011;9741;51.020;5.304;2023-11-21T14:13:16;5.67;;;1.83;;
19213;SDS011;9741;51.020;5.304;2023-11-21T14:15:43;4.33;;;2.63;;
19213;SDS011;9741;51.020;5.304;2023-11-21T14:18:16;4.77;;;2.40;;
19213;SDS011;9741;51.020;5.304;2023-11-21T14:20:51;4.07;;;1.93;;
19213;SDS011;9741;51.020;5.304;2023-11-21T14:23:19;5.97;;;2.33;;
19213;SDS011;9741;51.020;5.304;2023-11-21T14:25:48;2.87;;;1.40;;
19213;SDS011;9741;51.020;5.304;2023-11-21T14:28:17;4.43;;;1.73;;
19213;SDS011;9741;51.020;5.304;2023-11-21T14:30:44;1.97;;;1.67;;
19213;SDS011;9741;51.020;5.304;2023-11-21T14:33:12;3.47;;;2.17;;
19213;SDS011;9741;51.020;5.304;2023-11-21T14:35:41;4.77;;;2.40;;
19213;SDS011;9741;51.020;5.304;2023-11-21T14:38:09;3.93;;;2.80;;
19213;SDS011;9741;51.020;5.304;2023-11-21T14:40:41;3.40;;;2.10;;
19213;SDS011;9741;51.020;5.304;2023-11-21T14:43:16;2.53;;;2.00;;
19213;SDS011;9741;51.020;5.304;2023-11-21T14:45:45;1.50;;;1.27;;
19213;SDS011;9741;51.020;5.304;2023-11-21T14:48:14;2.33;;;1.57;;
19213;SDS011;9741;51.020;5.304;2023-11-21T14:50:51;5.17;;;2.70;;
19213;SDS011;9741;51.020;5.304;2023-11-21T14:53:34;1.50;;;1.40;;
19213;SDS011;9741;51.020;5.304;2023-11-21T14:56:20;2.50;;;2.13;;
19213;SDS011;9741;51.020;5.304;2023-11-21T14:58:52;2.63;;;1.60;;
19213;SDS011;9741;51.020;5.304;2023-11-21T15:01:20;2.73;;;2.20;;
19213;SDS011;9741;51.020;5.304;2023-11-21T15:04:00;5.57;;;3.43;;
19213;SDS011;9741;51.020;5.304;2023-11-21T15:06:27;3.27;;;2.93;;
19213;SDS011;9741;51.020;5.304;2023-11-21T15:08:56;4.87;;;2.60;;
19213;SDS011;9741;51.020;5.304;2023-11-21T15:11:39;7.10;;;3.40;;
19213;SDS011;9741;51.020;5.304;2023-11-21T15:14:07;2.00;;;1.70;;
19213;SDS011;9741;51.020;5.304;2023-11-21T15:16:34;2.43;;;2.00;;
19213;SDS011;9741;51.020;5.304;2023-11-21T15:19:05;3.07;;;2.00;;
19213;SDS011;9741;51.020;5.304;2023-11-21T15:21:32;9.23;;;2.40;;
19213;SDS011;9741;51.020;5.304;2023-11-21T15:23:59;4.03;;;2.27;;
19213;SDS011;9741;51.020;5.304;2023-11-21T15:26:26;3.77;;;2.23;;
19213;SDS011;9741;51.020;5.304;2023-11-21T15:28:55;2.37;;;2.13;;
19213;SDS011;9741;51.020;5.304;2023-11-21T15:31:22;4.27;;;2.00;;
19213;SDS011;9741;51.020;5.304;2023-11-21T15:33:50;2.57;;;2.00;;
19213;SDS011;9741;51.020;5.304;2023-11-21T15:36:18;12.77;;;3.00;;
19213;SDS011;9741;51.020;5.304;2023-11-21T15:38:45;3.00;;;2.03;;
19213;SDS011;9741;51.020;5.304;2023-11-21T15:41:13;4.17;;;2.67;;
19213;SDS011;9741;51.020;5.304;2023-11-21T15:43:40;5.80;;;1.47;;
19213;SDS011;9741;51.020;5.304;2023-11-21T15:46:08;8.40;;;2.73;;
19213;SDS011;9741;51.020;5.304;2023-11-21T15:48:35;2.53;;;2.30;;
19213;SDS011;9741;51.020;5.304;2023-11-21T15:51:04;2.67;;;2.43;;
19213;SDS011;9741;51.020;5.304;2023-11-21T15:53:33;5.67;;;2.40;;
19213;SDS011;9741;51.020;5.304;2023-11-21T15:56:00;3.43;;;2.17;;
19213;SDS011;9741;51.020;5.304;2023-11-21T15:58:35;2.73;;;2.17;;
19213;SDS011;9741;51.020;5.304;2023-11-21T16:01:02;3.33;;;3.03;;
19213;SDS011;9741;51.020;5.304;2023-11-21T16:03:31;2.23;;;2.03;;
19213;SDS011;9741;51.020;5.304;2023-11-21T16:05:58;2.87;;;2.17;;
19213;SDS011;9741;51.020;5.304;2023-11-21T16:08:25;2.17;;;2.03;;
19213;SDS011;9741;51.020;5.304;2023-11-21T16:10:52;3.80;;;3.23;;
19213;SDS011;9741;51.020;5.304;2023-11-21T16:13:22;3.87;;;2.60;;
19213;SDS011;9741;51.020;5.304;2023-11-21T16:15:49;3.63;;;3.03;;
19213;SDS011;9741;51.020;5.304;2023-11-21T16:18:16;2.90;;;2.37;;
19213;SDS011;9741;51.020;5.304;2023-11-21T16:20:45;4.40;;;1.97;;
19213;SDS011;9741;51.020;5.304;2023-11-21T16:23:12;2.90;;;2.03;;
19213;SDS011;9741;51.020;5.304;2023-11-21T16:25:41;3.97;;;2.63;;
19213;SDS011;9741;51.020;5.304;2023-11-21T16:28:08;4.17;;;2.70;;
19213;SDS011;9741;51.020;5.304;2023-11-21T16:30:37;4.00;;;1.93;;
19213;SDS011;9741;51.020;5.304;2023-11-21T16:33:04;2.23;;;1.93;;
19213;SDS011;9741;51.020;5.304;2023-11-21T16:35:39;3.13;;;2.33;;
19213;SDS011;9741;51.020;5.304;2023-11-21T16:38:08;6.40;;;3.13;;
19213;SDS011;9741;51.020;5.304;2023-11-21T16:40:35;4.83;;;3.03;;
19213;SDS011;9741;51.020;5.304;2023-11-21T16:43:02;2.53;;;1.57;;
19213;SDS011;9741;51.020;5.304;2023-11-21T16:45:29;5.07;;;3.40;;
19213;SDS011;9741;51.020;5.304;2023-11-21T16:47:56;3.20;;;2.50;;
19213;SDS011;9741;51.020;5.304;2023-11-21T16:50:28;8.63;;;2.93;;
19213;SDS011;9741;51.020;5.304;2023-11-21T16:52:56;2.67;;;1.97;;
19213;SDS011;9741;51.020;5.304;2023-11-21T16:55:24;5.77;;;2.33;;
19213;SDS011;9741;51.020;5.304;2023-11-21T16:57:51;7.10;;;2.60;;
19213;SDS011;9741;51.020;5.304;2023-11-21T17:00:19;2.37;;;2.13;;
19213;SDS011;9741;51.020;5.304;2023-11-21T17:02:47;6.97;;;2.77;;
19213;SDS011;9741;51.020;5.304;2023-11-21T17:05:15;4.40;;;1.70;;
19213;SDS011;9741;51.020;5.304;2023-11-21T17:07:44;8.40;;;2.90;;
19213;SDS011;9741;51.020;5.304;2023-11-21T17:10:12;4.90;;;2.80;;
19213;SDS011;9741;51.020;5.304;2023-11-21T17:12:41;5.23;;;2.93;;
19213;SDS011;9741;51.020;5.304;2023-11-21T17:15:08;3.23;;;1.90;;
19213;SDS011;9741;51.020;5.304;2023-11-21T17:17:36;4.30;;;2.77;;
19213;SDS011;9741;51.020;5.304;2023-11-21T17:20:04;5.03;;;3.20;;
19213;SDS011;9741;51.020;5.304;2023-11-21T17:22:35;4.30;;;3.10;;
19213;SDS011;9741;51.020;5.304;2023-11-21T17:25:03;2.70;;;1.70;;
19213;SDS011;9741;51.020;5.304;2023-11-21T17:27:31;4.00;;;2.33;;
19213;SDS011;9741;51.020;5.304;2023-11-21T17:29:59;7.27;;;2.47;;
19213;SDS011;9741;51.020;5.304;2023-11-21T17:32:29;5.03;;;2.37;;
19213;SDS011;9741;51.020;5.304;2023-11-21T17:34:56;10.63;;;2.80;;
19213;SDS011;9741;51.020;5.304;2023-11-21T17:37:25;4.87;;;3.20;;
19213;SDS011;9741;51.020;5.304;2023-11-21T17:39:52;6.30;;;2.40;;
19213;SDS011;9741;51.020;5.304;2023-11-21T17:42:20;6.70;;;3.47;;
19213;SDS011;9741;51.020;5.304;2023-11-21T17:44:48;3.33;;;2.07;;
19213;SDS011;9741;51.020;5.304;2023-11-21T17:47:16;8.30;;;3.57;;
19213;SDS011;9741;51.020;5.304;2023-11-21T17:49:44;4.27;;;2.57;;
19213;SDS011;9741;51.020;5.304;2023-11-21T17:52:11;4.67;;;3.23;;
19213;SDS011;9741;51.020;5.304;2023-11-21T17:54:38;7.63;;;4.00;;
19213;SDS011;9741;51.020;5.304;2023-11-21T17:57:07;5.23;;;3.87;;
19213;SDS011;9741;51.020;5.304;2023-11-21T17:59:35;3.07;;;2.67;;
19213;SDS011;9741;51.020;5.304;2023-11-21T18:02:04;4.10;;;3.13;;
19213;SDS011;9741;51.020;5.304;2023-11-21T18:04:33;11.77;;;3.00;;
19213;SDS011;9741;51.020;5.304;2023-11-21T18:07:00;6.53;;;3.63;;
19213;SDS011;9741;51.020;5.304;2023-11-21T18:09:29;4.27;;;2.90;;
19213;SDS011;9741;51.020;5.304;2023-11-21T18:11:56;2.10;;;1.60;;
19213;SDS011;9741;51.020;5.304;2023-11-21T18:14:23;1.37;;;1.27;;
19213;SDS011;9741;51.020;5.304;2023-11-21T18:16:50;3.60;;;2.30;;
19213;SDS011;9741;51.020;5.304;2023-11-21T18:19:18;2.20;;;2.10;;
19213;SDS011;9741;51.020;5.304;2023-11-21T18:21:46;2.93;;;2.73;;
19213;SDS011;9741;51.020;5.304;2023-11-21T18:24:14;4.30;;;2.87;;
19213;SDS011;9741;51.020;5.304;2023-11-21T18:26:41;3.17;;;1.50;;
19213;SDS011;9741;51.020;5.304;2023-11-21T18:29:08;3.77;;;1.77;;
19213;SDS011;9741;51.020;5.304;2023-11-21T18:31:34;3.40;;;2.20;;
19213;SDS011;9741;51.020;5.304;2023-11-21T18:34:01;3.10;;;2.30;;
19213;SDS011;9741;51.020;5.304;2023-11-21T18:36:28;3.53;;;3.00;;
19213;SDS011;9741;51.020;5.304;2023-11-21T18:38:57;2.87;;;2.23;;
19213;SDS011;9741;51.020;5.304;2023-11-21T18:41:24;2.17;;;1.97;;
19213;SDS011;9741;51.020;5.304;2023-11-21T18:43:51;2.77;;;2.13;;
19213;SDS011;9741;51.020;5.304;2023-11-21T18:46:19;4.10;;;3.00;;
19213;SDS011;9741;51.020;5.304;2023-11-21T18:48:46;2.97;;;1.90;;
19213;SDS011;9741;51.020;5.304;2023-11-21T18:51:14;4.40;;;2.17;;
19213;SDS011;9741;51.020;5.304;2023-11-21T18:53:41;5.33;;;3.27;;
19213;SDS011;9741;51.020;5.304;2023-11-21T18:56:19;3.13;;;2.17;;
19213;SDS011;9741;51.020;5.304;2023-11-21T18:58:49;6.00;;;2.70;;
19213;SDS011;9741;51.020;5.304;2023-11-21T19:01:23;2.30;;;2.07;;
19213;SDS011;9741;51.020;5.304;2023-11-21T19:03:51;5.20;;;3.03;;
19213;SDS011;9741;51.020;5.304;2023-11-21T19:06:19;3.13;;;2.27;;
19213;SDS011;9741;51.020;5.304;2023-11-21T19:08:47;5.50;;;3.53;;
19213;SDS011;9741;51.020;5.304;2023-11-21T19:11:14;4.73;;;3.87;;
19213;SDS011;9741;51.020;5.304;2023-11-21T19:17:05;3.87;;;2.73;;
19213;SDS011;9741;51.020;5.304;2023-11-21T19:19:32;13.70;;;3.17;;
19213;SDS011;9741;51.020;5.304;2023-11-21T19:25:05;4.67;;;3.87;;
19213;SDS011;9741;51.020;5.304;2023-11-21T19:27:33;5.17;;;2.60;;
19213;SDS011;9741;51.020;5.304;2023-11-21T19:30:01;7.07;;;2.97;;
19213;SDS011;9741;51.020;5.304;2023-11-21T19:32:31;2.23;;;2.10;;
19213;SDS011;9741;51.020;5.304;2023-11-21T19:35:00;7.77;;;3.33;;
19213;SDS011;9741;51.020;5.304;2023-11-21T19:37:28;5.60;;;1.87;;
19213;SDS011;9741;51.020;5.304;2023-11-21T19:39:55;3.93;;;3.13;;
19213;SDS011;9741;51.020;5.304;2023-11-21T19:42:23;2.87;;;2.40;;
19213;SDS011;9741;51.020;5.304;2023-11-21T19:51:20;2.07;;;1.83;;
19213;SDS011;9741;51.020;5.304;2023-11-21T19:53:47;4.73;;;2.97;;
19213;SDS011;9741;51.020;5.304;2023-11-21T19:56:15;2.67;;;2.37;;
19213;SDS011;9741;51.020;5.304;2023-11-21T19:58:42;3.43;;;2.57;;
19213;SDS011;9741;51.020;5.304;2023-11-21T20:01:09;4.17;;;2.87;;
19213;SDS011;9741;51.020;5.304;2023-11-21T20:03:36;2.53;;;2.07;;
19213;SDS011;9741;51.020;5.304;2023-11-21T20:06:04;3.27;;;2.07;;
19213;SDS011;9741;51.020;5.304;2023-11-21T20:08:33;2.70;;;1.93;;
19213;SDS011;9741;51.020;5.304;2023-11-21T20:11:00;3.43;;;2.80;;
19213;SDS011;9741;51.020;5.304;2023-11-21T20:13:27;3.53;;;2.60;;
19213;SDS011;9741;51.020;5.304;2023-11-21T20:15:55;4.10;;;2.20;;
19213;SDS011;9741;51.020;5.304;2023-11-21T20:18:22;5.33;;;2.67;;
19213;SDS011;9741;51.020;5.304;2023-11-21T20:20:49;4.93;;;2.43;;
19213;SDS011;9741;51.020;5.304;2023-11-21T20:23:16;4.43;;;2.63;;
19213;SDS011;9741;51.020;5.304;2023-11-21T20:25:46;3.00;;;2.10;;
19213;SDS011;9741;51.020;5.304;2023-11-21T20:28:13;3.57;;;2.53;;
19213;SDS011;9741;51.020;5.304;2023-11-21T20:30:40;3.17;;;2.23;;
19213;SDS011;9741;51.020;5.304;2023-11-21T20:33:07;3.37;;;2.13;;
19213;SDS011;9741;51.020;5.304;2023-11-21T20:35:34;4.67;;;2.53;;
19213;SDS011;9741;51.020;5.304;2023-11-21T20:38:02;3.47;;;2.03;;
19213;SDS011;9741;51.020;5.304;2023-11-21T20:40:29;7.70;;;2.00;;
19213;SDS011;9741;51.020;5.304;2023-11-21T20:42:58;3.53;;;3.23;;
19213;SDS011;9741;51.020;5.304;2023-11-21T20:45:28;2.80;;;2.60;;
19213;SDS011;9741;51.020;5.304;2023-11-21T20:47:55;3.17;;;2.43;;
19213;SDS011;9741;51.020;5.304;2023-11-21T20:50:22;2.20;;;1.80;;
19213;SDS011;9741;51.020;5.304;2023-11-21T20:52:49;2.00;;;1.83;;
19213;SDS011;9741;51.020;5.304;2023-11-21T20:55:18;2.87;;;2.67;;
19213;SDS011;9741;51.020;5.304;2023-11-21T20:57:48;2.17;;;1.40;;
19213;SDS011;9741;51.020;5.304;2023-11-21T21:00:17;5.10;;;2.83;;
19213;SDS011;9741;51.020;5.304;2023-11-21T21:02:45;3.43;;;3.07;;
19213;SDS011;9741;51.020;5.304;2023-11-21T21:05:15;3.40;;;2.63;;
19213;SDS011;9741;51.020;5.304;2023-11-21T21:07:43;4.90;;;2.80;;
19213;SDS011;9741;51.020;5.304;2023-11-21T21:10:10;4.77;;;2.73;;
19213;SDS011;9741;51.020;5.304;2023-11-21T21:12:39;5.83;;;2.40;;
19213;SDS011;9741;51.020;5.304;2023-11-21T21:15:07;6.87;;;2.97;;
19213;SDS011;9741;51.020;5.304;2023-11-21T21:17:38;3.13;;;2.10;;
19213;SDS011;9741;51.020;5.304;2023-11-21T21:20:06;5.60;;;2.17;;
19213;SDS011;9741;51.020;5.304;2023-11-21T21:22:35;3.63;;;2.50;;
19213;SDS011;9741;51.020;5.304;2023-11-21T21:25:03;2.00;;;1.77;;
19213;SDS011;9741;51.020;5.304;2023-11-21T21:27:31;6.73;;;3.27;;
19213;SDS011;9741;51.020;5.304;2023-11-21T21:29:58;3.47;;;2.33;;
19213;SDS011;9741;51.020;5.304;2023-11-21T21:32:26;3.47;;;2.23;;
19213;SDS011;9741;51.020;5.304;2023-11-21T21:34:54;2.23;;;1.73;;
19213;SDS011;9741;51.020;5.304;2023-11-21T21:37:21;5.03;;;2.63;;
19213;SDS011;9741;51.020;5.304;2023-11-21T21:39:49;4.43;;;3.47;;
19213;SDS011;9741;51.020;5.304;2023-11-21T21:42:18;2.20;;;1.97;;
19213;SDS011;9741;51.020;5.304;2023-11-21T21:44:47;2.50;;;2.30;;
19213;SDS011;9741;51.020;5.304;2023-11-21T21:47:14;4.73;;;2.77;;
19213;SDS011;9741;51.020;5.304;2023-11-21T21:49:41;1.77;;;1.67;;
19213;SDS011;9741;51.020;5.304;2023-11-21T21:52:10;3.53;;;3.00;;
19213;SDS011;9741;51.020;5.304;2023-11-21T21:54:38;3.33;;;3.03;;
19213;SDS011;9741;51.020;5.304;2023-11-21T21:57:05;3.60;;;2.20;;
19213;SDS011;9741;51.020;5.304;2023-11-21T21:59:32;3.00;;;1.97;;
19213;SDS011;9741;51.020;5.304;2023-11-21T22:01:59;2.73;;;2.53;;
19213;SDS011;9741;51.020;5.304;2023-11-21T22:04:26;5.53;;;3.23;;
19213;SDS011;9741;51.020;5.304;2023-11-21T22:06:52;2.80;;;2.23;;
19213;SDS011;9741;51.020;5.304;2023-11-21T22:09:21;6.60;;;3.20;;
19213;SDS011;9741;51.020;5.304;2023-11-21T22:11:48;4.80;;;3.13;;
19213;SDS011;9741;51.020;5.304;2023-11-21T22:14:15;2.83;;;2.57;;
19213;SDS011;9741;51.020;5.304;2023-11-21T22:16:42;2.97;;;2.20;;
19213;SDS011;9741;51.020;5.304;2023-11-21T22:19:09;5.73;;;3.13;;
19213;SDS011;9741;51.020;5.304;2023-11-21T22:21:36;6.47;;;2.40;;
19213;SDS011;9741;51.020;5.304;2023-11-21T22:24:04;3.90;;;2.80;;
19213;SDS011;9741;51.020;5.304;2023-11-21T22:26:33;3.63;;;2.30;;
19213;SDS011;9741;51.020;5.304;2023-11-21T22:29:01;5.37;;;2.70;;
19213;SDS011;9741;51.020;5.304;2023-11-21T22:31:29;4.33;;;2.37;;
19213;SDS011;9741;51.020;5.304;2023-11-21T22:33:56;4.80;;;2.53;;
19213;SDS011;9741;51.020;5.304;2023-11-21T22:36:23;1.80;;;1.60;;
19213;SDS011;9741;51.020;5.304;2023-11-21T22:38:49;2.10;;;1.90;;
19213;SDS011;9741;51.020;5.304;2023-11-21T22:41:22;6.80;;;2.73;;
19213;SDS011;9741;51.020;5.304;2023-11-21T22:43:52;6.87;;;3.93;;
19213;SDS011;9741;51.020;5.304;2023-11-21T22:46:20;3.47;;;3.07;;
19213;SDS011;9741;51.020;5.304;2023-11-21T22:48:47;2.00;;;1.80;;
19213;SDS011;9741;51.020;5.304;2023-11-21T22:51:14;2.93;;;2.30;;
19213;SDS011;9741;51.020;5.304;2023-11-21T22:53:42;3.70;;;2.40;;